sensor_id;sensor_type;location;lat;lon;timestamp;P1;durP1;ratioP1;P2;durP2;ratioP2
12665;SDS011;58531;59.050;17.416;2022-08-25T00:00:46;4.57;;;3.20;;
12665;SDS011;58531;59.050;17.416;2022-08-25T00:03:14;5.00;;;3.13;;
12665;SDS011;58531;59.050;17.416;2022-08-25T00:05:42;5.83;;;3.03;;
12665;SDS011;58531;59.050;17.416;2022-08-25T00:08:09;4.57;;;3.40;;
12665;SDS011;58531;59.050;17.416;2022-08-25T00:10:36;5.67;;;3.10;;
12665;SDS011;58531;59.050;17.416;2022-08-25T00:13:05;4.30;;;2.60;;
12665;SDS011;58531;59.050;17.416;2022-08-25T00:15:35;3.47;;;2.80;;
12665;SDS011;58531;59.050;17.416;2022-08-25T00:18:02;6.03;;;3.37;;
12665;SDS011;58531;59.050;17.416;2022-08-25T00:20:29;3.00;;;2.60;;
12665;SDS011;58531;59.050;17.416;2022-08-25T00:22:56;3.53;;;2.63;;
12665;SDS011;58531;59.050;17.416;2022-08-25T00:25:23;5.03;;;3.63;;
12665;SDS011;58531;59.050;17.416;2022-08-25T00:27:51;4.27;;;3.40;;
12665;SDS011;58531;59.050;17.416;2022-08-25T00:30:18;4.37;;;3.40;;
12665;SDS011;58531;59.050;17.416;2022-08-25T00:32:46;4.00;;;3.13;;
12665;SDS011;58531;59.050;17.416;2022-08-25T00:35:13;3.53;;;3.23;;
12665;SDS011;58531;59.050;17.416;2022-08-25T00:37:40;4.40;;;3.37;;
12665;SDS011;58531;59.050;17.416;2022-08-25T00:40:08;4.93;;;3.37;;
12665;SDS011;58531;59.050;17.416;2022-08-25T00:42:36;3.47;;;3.17;;
12665;SDS011;58531;59.050;17.416;2022-08-25T00:45:06;3.70;;;3.20;;
12665;SDS011;58531;59.050;17.416;2022-08-25T00:47:34;4.13;;;3.03;;
12665;SDS011;58531;59.050;17.416;2022-08-25T00:50:04;4.47;;;3.10;;
12665;SDS011;58531;59.050;17.416;2022-08-25T00:52:35;4.97;;;3.10;;
12665;SDS011;58531;59.050;17.416;2022-08-25T00:55:08;4.37;;;3.00;;
12665;SDS011;58531;59.050;17.416;2022-08-25T00:57:39;3.53;;;3.03;;
12665;SDS011;58531;59.050;17.416;2022-08-25T01:00:12;3.33;;;2.90;;
12665;SDS011;58531;59.050;17.416;2022-08-25T01:02:43;4.33;;;2.70;;
12665;SDS011;58531;59.050;17.416;2022-08-25T01:05:12;4.80;;;2.97;;
12665;SDS011;58531;59.050;17.416;2022-08-25T01:07:40;5.73;;;3.07;;
12665;SDS011;58531;59.050;17.416;2022-08-25T01:10:09;2.70;;;2.37;;
12665;SDS011;58531;59.050;17.416;2022-08-25T01:12:38;3.20;;;2.80;;
12665;SDS011;58531;59.050;17.416;2022-08-25T01:15:07;4.73;;;3.17;;
12665;SDS011;58531;59.050;17.416;2022-08-25T01:17:39;4.07;;;3.00;;
12665;SDS011;58531;59.050;17.416;2022-08-25T01:20:14;3.93;;;3.00;;
12665;SDS011;58531;59.050;17.416;2022-08-25T01:22:45;4.27;;;3.10;;
12665;SDS011;58531;59.050;17.416;2022-08-25T01:25:16;3.83;;;2.90;;
12665;SDS011;58531;59.050;17.416;2022-08-25T01:27:53;4.37;;;3.13;;
12665;SDS011;58531;59.050;17.416;2022-08-25T01:30:20;3.53;;;3.03;;
12665;SDS011;58531;59.050;17.416;2022-08-25T01:32:48;5.10;;;3.07;;
12665;SDS011;58531;59.050;17.416;2022-08-25T01:35:15;4.23;;;3.20;;
12665;SDS011;58531;59.050;17.416;2022-08-25T01:37:44;3.83;;;2.93;;
12665;SDS011;58531;59.050;17.416;2022-08-25T01:40:11;4.77;;;3.37;;
12665;SDS011;58531;59.050;17.416;2022-08-25T01:42:41;4.47;;;3.40;;
12665;SDS011;58531;59.050;17.416;2022-08-25T01:45:18;5.50;;;3.50;;
12665;SDS011;58531;59.050;17.416;2022-08-25T01:47:45;5.67;;;3.60;;
12665;SDS011;58531;59.050;17.416;2022-08-25T01:50:12;6.10;;;3.33;;
12665;SDS011;58531;59.050;17.416;2022-08-25T01:52:49;6.27;;;3.27;;
12665;SDS011;58531;59.050;17.416;2022-08-25T01:55:19;4.40;;;3.30;;
12665;SDS011;58531;59.050;17.416;2022-08-25T01:57:47;4.00;;;3.00;;
12665;SDS011;58531;59.050;17.416;2022-08-25T02:00:14;3.97;;;2.73;;
12665;SDS011;58531;59.050;17.416;2022-08-25T02:02:42;3.47;;;3.07;;
12665;SDS011;58531;59.050;17.416;2022-08-25T02:05:10;4.60;;;2.50;;
12665;SDS011;58531;59.050;17.416;2022-08-25T02:07:40;4.60;;;2.80;;
12665;SDS011;58531;59.050;17.416;2022-08-25T02:10:10;4.57;;;2.77;;
12665;SDS011;58531;59.050;17.416;2022-08-25T02:12:38;3.83;;;2.97;;
12665;SDS011;58531;59.050;17.416;2022-08-25T02:15:06;3.53;;;3.00;;
12665;SDS011;58531;59.050;17.416;2022-08-25T02:17:34;4.60;;;3.30;;
12665;SDS011;58531;59.050;17.416;2022-08-25T02:20:02;4.93;;;3.23;;
12665;SDS011;58531;59.050;17.416;2022-08-25T02:22:30;5.63;;;2.80;;
12665;SDS011;58531;59.050;17.416;2022-08-25T02:24:57;4.33;;;3.17;;
12665;SDS011;58531;59.050;17.416;2022-08-25T02:27:26;6.87;;;3.40;;
12665;SDS011;58531;59.050;17.416;2022-08-25T02:29:52;4.80;;;3.33;;
12665;SDS011;58531;59.050;17.416;2022-08-25T02:32:19;4.37;;;3.00;;
12665;SDS011;58531;59.050;17.416;2022-08-25T02:34:46;4.00;;;3.10;;
12665;SDS011;58531;59.050;17.416;2022-08-25T02:37:13;3.97;;;3.03;;
12665;SDS011;58531;59.050;17.416;2022-08-25T02:39:40;3.20;;;2.50;;
12665;SDS011;58531;59.050;17.416;2022-08-25T02:42:07;3.70;;;2.60;;
12665;SDS011;58531;59.050;17.416;2022-08-25T02:44:35;3.07;;;2.67;;
12665;SDS011;58531;59.050;17.416;2022-08-25T02:47:02;3.70;;;2.73;;
12665;SDS011;58531;59.050;17.416;2022-08-25T02:49:30;5.60;;;2.70;;
12665;SDS011;58531;59.050;17.416;2022-08-25T02:51:57;2.87;;;2.57;;
12665;SDS011;58531;59.050;17.416;2022-08-25T02:54:25;3.23;;;2.63;;
12665;SDS011;58531;59.050;17.416;2022-08-25T02:56:52;3.60;;;2.77;;
12665;SDS011;58531;59.050;17.416;2022-08-25T02:59:19;6.13;;;3.00;;
12665;SDS011;58531;59.050;17.416;2022-08-25T03:01:47;3.90;;;2.83;;
12665;SDS011;58531;59.050;17.416;2022-08-25T03:04:14;5.07;;;2.80;;
12665;SDS011;58531;59.050;17.416;2022-08-25T03:06:41;7.23;;;3.87;;
12665;SDS011;58531;59.050;17.416;2022-08-25T03:09:08;16.73;;;4.53;;
12665;SDS011;58531;59.050;17.416;2022-08-25T03:11:35;8.00;;;4.30;;
12665;SDS011;58531;59.050;17.416;2022-08-25T03:14:02;8.37;;;3.83;;
12665;SDS011;58531;59.050;17.416;2022-08-25T03:16:30;5.13;;;3.50;;
12665;SDS011;58531;59.050;17.416;2022-08-25T03:18:58;5.93;;;3.23;;
12665;SDS011;58531;59.050;17.416;2022-08-25T03:21:26;5.13;;;3.80;;
12665;SDS011;58531;59.050;17.416;2022-08-25T03:23:54;5.27;;;3.10;;
12665;SDS011;58531;59.050;17.416;2022-08-25T03:26:22;5.90;;;3.17;;
12665;SDS011;58531;59.050;17.416;2022-08-25T03:29:06;3.23;;;2.70;;
12665;SDS011;58531;59.050;17.416;2022-08-25T03:31:34;5.77;;;3.00;;
12665;SDS011;58531;59.050;17.416;2022-08-25T03:34:03;6.23;;;2.90;;
12665;SDS011;58531;59.050;17.416;2022-08-25T03:36:31;3.83;;;3.20;;
12665;SDS011;58531;59.050;17.416;2022-08-25T03:38:58;6.33;;;3.50;;
12665;SDS011;58531;59.050;17.416;2022-08-25T03:41:26;4.83;;;3.57;;
12665;SDS011;58531;59.050;17.416;2022-08-25T03:43:57;4.93;;;3.10;;
12665;SDS011;58531;59.050;17.416;2022-08-25T03:46:24;4.53;;;3.33;;
12665;SDS011;58531;59.050;17.416;2022-08-25T03:48:53;3.60;;;3.20;;
12665;SDS011;58531;59.050;17.416;2022-08-25T03:51:22;3.83;;;3.17;;
12665;SDS011;58531;59.050;17.416;2022-08-25T03:53:51;4.13;;;3.30;;
12665;SDS011;58531;59.050;17.416;2022-08-25T03:56:18;4.03;;;3.50;;
12665;SDS011;58531;59.050;17.416;2022-08-25T03:58:45;3.93;;;2.90;;
12665;SDS011;58531;59.050;17.416;2022-08-25T04:01:12;4.30;;;2.63;;
12665;SDS011;58531;59.050;17.416;2022-08-25T04:03:42;3.10;;;2.70;;
12665;SDS011;58531;59.050;17.416;2022-08-25T04:06:09;5.23;;;3.30;;
12665;SDS011;58531;59.050;17.416;2022-08-25T04:08:42;3.47;;;3.00;;
12665;SDS011;58531;59.050;17.416;2022-08-25T04:11:10;4.70;;;3.03;;
12665;SDS011;58531;59.050;17.416;2022-08-25T04:13:40;3.57;;;3.00;;
12665;SDS011;58531;59.050;17.416;2022-08-25T04:16:09;4.60;;;2.80;;
12665;SDS011;58531;59.050;17.416;2022-08-25T04:18:38;4.27;;;3.63;;
12665;SDS011;58531;59.050;17.416;2022-08-25T04:21:06;3.70;;;3.00;;
12665;SDS011;58531;59.050;17.416;2022-08-25T04:23:34;3.97;;;3.27;;
12665;SDS011;58531;59.050;17.416;2022-08-25T04:26:02;2.97;;;2.67;;
12665;SDS011;58531;59.050;17.416;2022-08-25T04:28:35;4.73;;;2.70;;
12665;SDS011;58531;59.050;17.416;2022-08-25T04:31:04;3.37;;;2.80;;
12665;SDS011;58531;59.050;17.416;2022-08-25T04:33:31;5.73;;;4.10;;
12665;SDS011;58531;59.050;17.416;2022-08-25T04:36:01;7.50;;;4.80;;
12665;SDS011;58531;59.050;17.416;2022-08-25T04:38:29;5.37;;;4.30;;
12665;SDS011;58531;59.050;17.416;2022-08-25T04:40:56;6.00;;;3.90;;
12665;SDS011;58531;59.050;17.416;2022-08-25T04:43:25;4.63;;;3.80;;
12665;SDS011;58531;59.050;17.416;2022-08-25T04:45:52;8.33;;;4.60;;
12665;SDS011;58531;59.050;17.416;2022-08-25T04:48:20;10.03;;;5.77;;
12665;SDS011;58531;59.050;17.416;2022-08-25T04:50:47;7.30;;;5.50;;
12665;SDS011;58531;59.050;17.416;2022-08-25T04:53:14;7.13;;;4.73;;
12665;SDS011;58531;59.050;17.416;2022-08-25T04:55:42;20.47;;;4.40;;
12665;SDS011;58531;59.050;17.416;2022-08-25T04:58:10;10.50;;;5.50;;
12665;SDS011;58531;59.050;17.416;2022-08-25T05:00:39;7.43;;;5.10;;
12665;SDS011;58531;59.050;17.416;2022-08-25T05:03:07;7.63;;;4.20;;
12665;SDS011;58531;59.050;17.416;2022-08-25T05:05:35;7.83;;;4.73;;
12665;SDS011;58531;59.050;17.416;2022-08-25T05:08:03;5.33;;;4.47;;
12665;SDS011;58531;59.050;17.416;2022-08-25T05:10:30;5.63;;;4.20;;
12665;SDS011;58531;59.050;17.416;2022-08-25T05:12:57;6.70;;;3.47;;
12665;SDS011;58531;59.050;17.416;2022-08-25T05:15:24;2.83;;;2.20;;
12665;SDS011;58531;59.050;17.416;2022-08-25T05:18:11;3.03;;;2.27;;
12665;SDS011;58531;59.050;17.416;2022-08-25T05:20:37;2.80;;;2.03;;
12665;SDS011;58531;59.050;17.416;2022-08-25T05:23:04;1.23;;;1.13;;
12665;SDS011;58531;59.050;17.416;2022-08-25T05:25:31;1.90;;;1.47;;
12665;SDS011;58531;59.050;17.416;2022-08-25T05:27:58;3.17;;;1.30;;
12665;SDS011;58531;59.050;17.416;2022-08-25T05:30:25;2.50;;;1.40;;
12665;SDS011;58531;59.050;17.416;2022-08-25T05:32:52;1.40;;;1.20;;
12665;SDS011;58531;59.050;17.416;2022-08-25T05:35:21;3.07;;;1.40;;
12665;SDS011;58531;59.050;17.416;2022-08-25T05:37:48;1.63;;;1.30;;
12665;SDS011;58531;59.050;17.416;2022-08-25T05:40:15;1.10;;;0.90;;
12665;SDS011;58531;59.050;17.416;2022-08-25T05:42:42;1.30;;;1.20;;
12665;SDS011;58531;59.050;17.416;2022-08-25T05:45:09;0.97;;;0.93;;
12665;SDS011;58531;59.050;17.416;2022-08-25T05:47:37;0.90;;;0.90;;
12665;SDS011;58531;59.050;17.416;2022-08-25T05:50:05;1.30;;;1.20;;
12665;SDS011;58531;59.050;17.416;2022-08-25T05:52:34;1.27;;;1.17;;
12665;SDS011;58531;59.050;17.416;2022-08-25T05:55:01;1.63;;;1.23;;
12665;SDS011;58531;59.050;17.416;2022-08-25T05:57:29;1.20;;;1.03;;
12665;SDS011;58531;59.050;17.416;2022-08-25T05:59:55;1.00;;;1.00;;
12665;SDS011;58531;59.050;17.416;2022-08-25T06:02:22;1.30;;;1.20;;
12665;SDS011;58531;59.050;17.416;2022-08-25T06:05:08;1.20;;;1.10;;
12665;SDS011;58531;59.050;17.416;2022-08-25T06:07:43;1.27;;;1.00;;
12665;SDS011;58531;59.050;17.416;2022-08-25T06:10:10;1.80;;;1.20;;
12665;SDS011;58531;59.050;17.416;2022-08-25T06:12:39;1.30;;;1.20;;
12665;SDS011;58531;59.050;17.416;2022-08-25T06:15:09;2.30;;;1.20;;
12665;SDS011;58531;59.050;17.416;2022-08-25T06:17:37;1.33;;;1.23;;
12665;SDS011;58531;59.050;17.416;2022-08-25T06:20:08;2.80;;;1.20;;
12665;SDS011;58531;59.050;17.416;2022-08-25T06:22:39;1.20;;;1.10;;
12665;SDS011;58531;59.050;17.416;2022-08-25T06:25:10;1.20;;;1.10;;
12665;SDS011;58531;59.050;17.416;2022-08-25T06:27:39;1.20;;;1.10;;
12665;SDS011;58531;59.050;17.416;2022-08-25T06:30:06;1.97;;;1.20;;
12665;SDS011;58531;59.050;17.416;2022-08-25T06:32:37;1.27;;;1.10;;
12665;SDS011;58531;59.050;17.416;2022-08-25T06:35:06;1.23;;;1.13;;
12665;SDS011;58531;59.050;17.416;2022-08-25T06:37:34;1.70;;;1.33;;
12665;SDS011;58531;59.050;17.416;2022-08-25T06:40:03;1.83;;;1.40;;
12665;SDS011;58531;59.050;17.416;2022-08-25T06:42:32;2.33;;;1.40;;
12665;SDS011;58531;59.050;17.416;2022-08-25T06:44:59;1.50;;;1.13;;
12665;SDS011;58531;59.050;17.416;2022-08-25T06:47:26;1.20;;;1.10;;
12665;SDS011;58531;59.050;17.416;2022-08-25T06:49:53;1.40;;;1.30;;
12665;SDS011;58531;59.050;17.416;2022-08-25T06:52:20;1.67;;;1.37;;
12665;SDS011;58531;59.050;17.416;2022-08-25T06:54:47;1.63;;;1.53;;
12665;SDS011;58531;59.050;17.416;2022-08-25T06:57:14;1.47;;;1.37;;
12665;SDS011;58531;59.050;17.416;2022-08-25T06:59:43;1.63;;;1.50;;
12665;SDS011;58531;59.050;17.416;2022-08-25T07:02:10;4.43;;;1.90;;
12665;SDS011;58531;59.050;17.416;2022-08-25T07:04:37;1.77;;;1.67;;
12665;SDS011;58531;59.050;17.416;2022-08-25T07:07:04;1.70;;;1.60;;
12665;SDS011;58531;59.050;17.416;2022-08-25T07:09:31;2.53;;;1.80;;
12665;SDS011;58531;59.050;17.416;2022-08-25T07:11:59;2.03;;;1.70;;
12665;SDS011;58531;59.050;17.416;2022-08-25T07:14:26;1.70;;;1.60;;
12665;SDS011;58531;59.050;17.416;2022-08-25T07:16:55;2.50;;;1.93;;
12665;SDS011;58531;59.050;17.416;2022-08-25T07:19:22;1.90;;;1.80;;
12665;SDS011;58531;59.050;17.416;2022-08-25T07:21:49;1.77;;;1.67;;
12665;SDS011;58531;59.050;17.416;2022-08-25T07:24:18;2.67;;;1.90;;
12665;SDS011;58531;59.050;17.416;2022-08-25T07:26:45;1.57;;;1.47;;
12665;SDS011;58531;59.050;17.416;2022-08-25T07:29:13;1.80;;;1.70;;
12665;SDS011;58531;59.050;17.416;2022-08-25T07:31:42;1.70;;;1.60;;
12665;SDS011;58531;59.050;17.416;2022-08-25T07:34:10;2.43;;;1.83;;
12665;SDS011;58531;59.050;17.416;2022-08-25T07:36:55;1.50;;;1.40;;
12665;SDS011;58531;59.050;17.416;2022-08-25T07:39:22;1.77;;;1.20;;
12665;SDS011;58531;59.050;17.416;2022-08-25T07:41:50;2.13;;;1.40;;
12665;SDS011;58531;59.050;17.416;2022-08-25T07:44:17;1.20;;;1.10;;
12665;SDS011;58531;59.050;17.416;2022-08-25T07:46:44;1.33;;;1.23;;
12665;SDS011;58531;59.050;17.416;2022-08-25T07:49:13;1.40;;;1.30;;
12665;SDS011;58531;59.050;17.416;2022-08-25T07:51:40;3.03;;;1.67;;
12665;SDS011;58531;59.050;17.416;2022-08-25T07:54:07;1.30;;;1.20;;
12665;SDS011;58531;59.050;17.416;2022-08-25T07:56:34;2.07;;;1.40;;
12665;SDS011;58531;59.050;17.416;2022-08-25T07:59:01;1.20;;;1.10;;
12665;SDS011;58531;59.050;17.416;2022-08-25T08:01:28;1.83;;;1.27;;
12665;SDS011;58531;59.050;17.416;2022-08-25T08:03:54;3.37;;;1.20;;
12665;SDS011;58531;59.050;17.416;2022-08-25T08:06:23;2.00;;;1.30;;
12665;SDS011;58531;59.050;17.416;2022-08-25T08:08:52;2.10;;;1.20;;
12665;SDS011;58531;59.050;17.416;2022-08-25T08:11:20;1.93;;;1.30;;
12665;SDS011;58531;59.050;17.416;2022-08-25T08:13:49;1.30;;;1.20;;
12665;SDS011;58531;59.050;17.416;2022-08-25T08:16:17;2.77;;;1.37;;
12665;SDS011;58531;59.050;17.416;2022-08-25T08:18:47;3.47;;;1.53;;
12665;SDS011;58531;59.050;17.416;2022-08-25T08:21:15;3.23;;;1.40;;
12665;SDS011;58531;59.050;17.416;2022-08-25T08:23:45;1.53;;;1.43;;
12665;SDS011;58531;59.050;17.416;2022-08-25T08:26:13;1.40;;;1.20;;
12665;SDS011;58531;59.050;17.416;2022-08-25T08:28:40;2.00;;;1.47;;
12665;SDS011;58531;59.050;17.416;2022-08-25T08:31:09;3.10;;;1.20;;
12665;SDS011;58531;59.050;17.416;2022-08-25T08:33:37;1.37;;;1.10;;
12665;SDS011;58531;59.050;17.416;2022-08-25T08:36:05;1.20;;;1.10;;
12665;SDS011;58531;59.050;17.416;2022-08-25T08:38:34;1.73;;;0.70;;
12665;SDS011;58531;59.050;17.416;2022-08-25T08:41:05;1.73;;;1.00;;
12665;SDS011;58531;59.050;17.416;2022-08-25T08:43:59;0.87;;;0.80;;
12665;SDS011;58531;59.050;17.416;2022-08-25T08:46:35;2.17;;;1.00;;
12665;SDS011;58531;59.050;17.416;2022-08-25T08:49:10;1.83;;;1.00;;
12665;SDS011;58531;59.050;17.416;2022-08-25T08:51:48;1.37;;;0.80;;
12665;SDS011;58531;59.050;17.416;2022-08-25T08:54:22;2.67;;;1.10;;
12665;SDS011;58531;59.050;17.416;2022-08-25T08:56:56;2.40;;;1.00;;
12665;SDS011;58531;59.050;17.416;2022-08-25T08:59:30;1.13;;;1.03;;
12665;SDS011;58531;59.050;17.416;2022-08-25T09:02:05;3.53;;;1.17;;
12665;SDS011;58531;59.050;17.416;2022-08-25T09:04:42;1.63;;;0.97;;
12665;SDS011;58531;59.050;17.416;2022-08-25T09:07:13;1.10;;;0.97;;
12665;SDS011;58531;59.050;17.416;2022-08-25T09:09:44;2.40;;;0.80;;
12665;SDS011;58531;59.050;17.416;2022-08-25T09:12:14;3.37;;;1.00;;
12665;SDS011;58531;59.050;17.416;2022-08-25T09:14:58;2.50;;;1.00;;
12665;SDS011;58531;59.050;17.416;2022-08-25T09:17:36;1.53;;;1.07;;
12665;SDS011;58531;59.050;17.416;2022-08-25T09:20:32;2.37;;;1.13;;
12665;SDS011;58531;59.050;17.416;2022-08-25T09:23:12;1.10;;;1.00;;
12665;SDS011;58531;59.050;17.416;2022-08-25T09:25:52;5.83;;;1.20;;
12665;SDS011;58531;59.050;17.416;2022-08-25T09:28:31;1.20;;;0.97;;
12665;SDS011;58531;59.050;17.416;2022-08-25T09:31:04;3.10;;;0.90;;
12665;SDS011;58531;59.050;17.416;2022-08-25T09:33:40;1.00;;;0.90;;
12665;SDS011;58531;59.050;17.416;2022-08-25T09:36:07;1.50;;;0.90;;
12665;SDS011;58531;59.050;17.416;2022-08-25T09:38:35;1.70;;;1.10;;
12665;SDS011;58531;59.050;17.416;2022-08-25T09:41:06;0.90;;;0.80;;
12665;SDS011;58531;59.050;17.416;2022-08-25T09:43:38;1.67;;;1.30;;
12665;SDS011;58531;59.050;17.416;2022-08-25T09:46:10;0.90;;;0.90;;
12665;SDS011;58531;59.050;17.416;2022-08-25T09:48:43;1.97;;;0.93;;
12665;SDS011;58531;59.050;17.416;2022-08-25T09:51:15;1.53;;;0.90;;
12665;SDS011;58531;59.050;17.416;2022-08-25T09:53:47;1.20;;;1.00;;
12665;SDS011;58531;59.050;17.416;2022-08-25T09:56:19;1.20;;;1.07;;
12665;SDS011;58531;59.050;17.416;2022-08-25T09:58:49;0.90;;;0.90;;
12665;SDS011;58531;59.050;17.416;2022-08-25T10:01:16;1.00;;;0.93;;
12665;SDS011;58531;59.050;17.416;2022-08-25T10:04:00;1.50;;;1.00;;
12665;SDS011;58531;59.050;17.416;2022-08-25T10:06:29;0.97;;;0.87;;
12665;SDS011;58531;59.050;17.416;2022-08-25T10:09:01;1.50;;;1.00;;
12665;SDS011;58531;59.050;17.416;2022-08-25T10:11:32;1.37;;;0.77;;
12665;SDS011;58531;59.050;17.416;2022-08-25T10:14:05;1.47;;;1.00;;
12665;SDS011;58531;59.050;17.416;2022-08-25T10:16:41;1.30;;;1.00;;
12665;SDS011;58531;59.050;17.416;2022-08-25T10:19:09;2.07;;;1.20;;
12665;SDS011;58531;59.050;17.416;2022-08-25T10:21:38;1.10;;;1.00;;
12665;SDS011;58531;59.050;17.416;2022-08-25T10:24:08;2.83;;;1.00;;
12665;SDS011;58531;59.050;17.416;2022-08-25T10:26:40;1.80;;;0.97;;
12665;SDS011;58531;59.050;17.416;2022-08-25T10:29:25;1.90;;;0.90;;
12665;SDS011;58531;59.050;17.416;2022-08-25T10:32:02;1.70;;;1.17;;
12665;SDS011;58531;59.050;17.416;2022-08-25T10:34:38;1.63;;;1.10;;
12665;SDS011;58531;59.050;17.416;2022-08-25T10:37:14;3.03;;;1.10;;
12665;SDS011;58531;59.050;17.416;2022-08-25T10:39:51;1.03;;;0.90;;
12665;SDS011;58531;59.050;17.416;2022-08-25T10:42:28;1.30;;;0.97;;
12665;SDS011;58531;59.050;17.416;2022-08-25T10:45:05;1.47;;;1.00;;
12665;SDS011;58531;59.050;17.416;2022-08-25T10:48:01;1.10;;;0.80;;
12665;SDS011;58531;59.050;17.416;2022-08-25T10:50:39;2.70;;;1.00;;
12665;SDS011;58531;59.050;17.416;2022-08-25T10:53:12;1.27;;;0.90;;
12665;SDS011;58531;59.050;17.416;2022-08-25T10:55:49;2.37;;;1.00;;
12665;SDS011;58531;59.050;17.416;2022-08-25T10:58:29;2.17;;;1.03;;
12665;SDS011;58531;59.050;17.416;2022-08-25T11:01:39;1.63;;;1.00;;
12665;SDS011;58531;59.050;17.416;2022-08-25T11:04:19;1.53;;;1.13;;
12665;SDS011;58531;59.050;17.416;2022-08-25T11:06:52;2.60;;;1.20;;
12665;SDS011;58531;59.050;17.416;2022-08-25T11:09:24;3.53;;;1.30;;
12665;SDS011;58531;59.050;17.416;2022-08-25T11:11:57;1.70;;;0.97;;
12665;SDS011;58531;59.050;17.416;2022-08-25T11:14:28;1.30;;;0.90;;
12665;SDS011;58531;59.050;17.416;2022-08-25T11:17:03;2.73;;;1.20;;
12665;SDS011;58531;59.050;17.416;2022-08-25T11:19:37;4.63;;;1.30;;
12665;SDS011;58531;59.050;17.416;2022-08-25T11:22:11;2.83;;;1.27;;
12665;SDS011;58531;59.050;17.416;2022-08-25T11:24:53;1.33;;;1.20;;
12665;SDS011;58531;59.050;17.416;2022-08-25T11:27:27;2.03;;;1.00;;
12665;SDS011;58531;59.050;17.416;2022-08-25T11:30:02;2.73;;;1.10;;
12665;SDS011;58531;59.050;17.416;2022-08-25T11:32:34;2.10;;;1.10;;
12665;SDS011;58531;59.050;17.416;2022-08-25T11:35:04;1.43;;;1.03;;
12665;SDS011;58531;59.050;17.416;2022-08-25T11:37:35;2.10;;;1.20;;
12665;SDS011;58531;59.050;17.416;2022-08-25T11:40:18;1.10;;;1.00;;
12665;SDS011;58531;59.050;17.416;2022-08-25T11:42:59;1.10;;;1.00;;
12665;SDS011;58531;59.050;17.416;2022-08-25T11:45:45;2.17;;;1.00;;
12665;SDS011;58531;59.050;17.416;2022-08-25T11:48:23;3.33;;;1.10;;
12665;SDS011;58531;59.050;17.416;2022-08-25T11:51:04;1.10;;;1.00;;
12665;SDS011;58531;59.050;17.416;2022-08-25T11:53:33;2.50;;;1.10;;
12665;SDS011;58531;59.050;17.416;2022-08-25T11:56:02;1.83;;;1.13;;
12665;SDS011;58531;59.050;17.416;2022-08-25T12:04:33;1.97;;;0.93;;
12665;SDS011;58531;59.050;17.416;2022-08-25T12:07:20;9.13;;;1.70;;
12665;SDS011;58531;59.050;17.416;2022-08-25T12:13:03;1.70;;;1.00;;
12665;SDS011;58531;59.050;17.416;2022-08-25T12:15:59;1.53;;;1.00;;
12665;SDS011;58531;59.050;17.416;2022-08-25T12:18:40;2.43;;;1.00;;
12665;SDS011;58531;59.050;17.416;2022-08-25T12:21:14;1.77;;;1.10;;
12665;SDS011;58531;59.050;17.416;2022-08-25T12:24:11;2.03;;;1.20;;
12665;SDS011;58531;59.050;17.416;2022-08-25T12:26:42;4.90;;;1.20;;
12665;SDS011;58531;59.050;17.416;2022-08-25T12:29:19;2.60;;;1.00;;
12665;SDS011;58531;59.050;17.416;2022-08-25T12:31:59;2.70;;;1.00;;
12665;SDS011;58531;59.050;17.416;2022-08-25T12:34:48;1.33;;;1.10;;
12665;SDS011;58531;59.050;17.416;2022-08-25T12:37:33;2.83;;;1.13;;
12665;SDS011;58531;59.050;17.416;2022-08-25T12:40:21;1.20;;;1.00;;
12665;SDS011;58531;59.050;17.416;2022-08-25T12:43:01;1.83;;;1.10;;
12665;SDS011;58531;59.050;17.416;2022-08-25T12:45:35;2.07;;;1.03;;
12665;SDS011;58531;59.050;17.416;2022-08-25T12:51:14;0.90;;;0.90;;
12665;SDS011;58531;59.050;17.416;2022-08-25T12:53:46;1.27;;;0.70;;
12665;SDS011;58531;59.050;17.416;2022-08-25T12:56:18;1.30;;;0.77;;
12665;SDS011;58531;59.050;17.416;2022-08-25T12:58:53;1.03;;;0.97;;
12665;SDS011;58531;59.050;17.416;2022-08-25T13:01:30;1.13;;;0.90;;
12665;SDS011;58531;59.050;17.416;2022-08-25T13:04:19;0.80;;;0.80;;
12665;SDS011;58531;59.050;17.416;2022-08-25T13:07:11;1.10;;;0.90;;
12665;SDS011;58531;59.050;17.416;2022-08-25T13:10:06;1.10;;;1.00;;
12665;SDS011;58531;59.050;17.416;2022-08-25T13:12:46;2.07;;;0.97;;
12665;SDS011;58531;59.050;17.416;2022-08-25T13:15:27;1.13;;;0.80;;
12665;SDS011;58531;59.050;17.416;2022-08-25T13:18:18;3.60;;;1.07;;
12665;SDS011;58531;59.050;17.416;2022-08-25T13:20:51;1.47;;;1.03;;
12665;SDS011;58531;59.050;17.416;2022-08-25T13:23:22;0.73;;;0.73;;
12665;SDS011;58531;59.050;17.416;2022-08-25T13:25:56;0.90;;;0.80;;
12665;SDS011;58531;59.050;17.416;2022-08-25T13:28:26;0.83;;;0.80;;
12665;SDS011;58531;59.050;17.416;2022-08-25T13:31:00;3.60;;;0.87;;
12665;SDS011;58531;59.050;17.416;2022-08-25T13:33:31;1.40;;;1.00;;
12665;SDS011;58531;59.050;17.416;2022-08-25T13:36:02;1.00;;;0.90;;
12665;SDS011;58531;59.050;17.416;2022-08-25T13:38:49;1.90;;;0.70;;
12665;SDS011;58531;59.050;17.416;2022-08-25T13:41:22;1.37;;;1.00;;
12665;SDS011;58531;59.050;17.416;2022-08-25T13:43:54;1.20;;;0.93;;
12665;SDS011;58531;59.050;17.416;2022-08-25T13:46:27;1.43;;;0.80;;
12665;SDS011;58531;59.050;17.416;2022-08-25T13:49:00;1.27;;;1.10;;
12665;SDS011;58531;59.050;17.416;2022-08-25T13:51:29;1.03;;;0.80;;
12665;SDS011;58531;59.050;17.416;2022-08-25T13:54:02;1.20;;;0.90;;
12665;SDS011;58531;59.050;17.416;2022-08-25T13:56:35;0.80;;;0.80;;
12665;SDS011;58531;59.050;17.416;2022-08-25T13:59:16;1.33;;;0.90;;
12665;SDS011;58531;59.050;17.416;2022-08-25T14:01:51;1.07;;;0.93;;
12665;SDS011;58531;59.050;17.416;2022-08-25T14:04:22;1.43;;;0.80;;
12665;SDS011;58531;59.050;17.416;2022-08-25T14:07:12;1.20;;;0.70;;
12665;SDS011;58531;59.050;17.416;2022-08-25T14:09:51;1.13;;;0.90;;
12665;SDS011;58531;59.050;17.416;2022-08-25T14:12:29;2.00;;;0.80;;
12665;SDS011;58531;59.050;17.416;2022-08-25T14:15:04;1.43;;;1.07;;
12665;SDS011;58531;59.050;17.416;2022-08-25T14:17:36;1.77;;;0.80;;
12665;SDS011;58531;59.050;17.416;2022-08-25T14:20:05;3.43;;;0.87;;
12665;SDS011;58531;59.050;17.416;2022-08-25T14:22:41;2.50;;;0.70;;
12665;SDS011;58531;59.050;17.416;2022-08-25T14:25:08;1.43;;;0.90;;
12665;SDS011;58531;59.050;17.416;2022-08-25T14:27:36;1.00;;;0.80;;
12665;SDS011;58531;59.050;17.416;2022-08-25T14:30:07;1.93;;;0.87;;
12665;SDS011;58531;59.050;17.416;2022-08-25T14:32:35;2.40;;;0.97;;
12665;SDS011;58531;59.050;17.416;2022-08-25T14:35:02;1.43;;;0.80;;
12665;SDS011;58531;59.050;17.416;2022-08-25T14:37:29;3.33;;;0.90;;
12665;SDS011;58531;59.050;17.416;2022-08-25T14:39:56;1.57;;;0.97;;
12665;SDS011;58531;59.050;17.416;2022-08-25T14:42:23;1.07;;;0.80;;
12665;SDS011;58531;59.050;17.416;2022-08-25T14:44:51;3.00;;;1.00;;
12665;SDS011;58531;59.050;17.416;2022-08-25T14:47:18;1.33;;;0.90;;
12665;SDS011;58531;59.050;17.416;2022-08-25T14:49:45;1.43;;;0.80;;
12665;SDS011;58531;59.050;17.416;2022-08-25T14:52:15;1.90;;;0.83;;
12665;SDS011;58531;59.050;17.416;2022-08-25T14:54:46;2.83;;;1.03;;
12665;SDS011;58531;59.050;17.416;2022-08-25T14:57:13;0.90;;;0.80;;
12665;SDS011;58531;59.050;17.416;2022-08-25T14:59:40;2.10;;;0.80;;
12665;SDS011;58531;59.050;17.416;2022-08-25T15:02:08;1.87;;;0.80;;
12665;SDS011;58531;59.050;17.416;2022-08-25T15:04:37;0.80;;;0.80;;
12665;SDS011;58531;59.050;17.416;2022-08-25T15:07:04;1.03;;;0.80;;
12665;SDS011;58531;59.050;17.416;2022-08-25T15:09:51;1.07;;;0.80;;